sensor_id;sensor_type;location;lat;lon;timestamp;temperature;humidity
38118;DHT22;23928;47.562;7.508;2023-06-10T00:01:34;19.40;99.90
38118;DHT22;23928;47.562;7.508;2023-06-10T00:04:02;19.40;99.90
38118;DHT22;23928;47.562;7.508;2023-06-10T00:06:28;19.50;99.90
38118;DHT22;23928;47.562;7.508;2023-06-10T00:09:01;19.50;99.90
38118;DHT22;23928;47.562;7.508;2023-06-10T00:11:26;19.40;99.90
38118;DHT22;23928;47.562;7.508;2023-06-10T00:13:52;19.30;99.90
38118;DHT22;23928;47.562;7.508;2023-06-10T00:16:18;19.30;99.90
38118;DHT22;23928;47.562;7.508;2023-06-10T00:18:44;19.30;99.90
38118;DHT22;23928;47.562;7.508;2023-06-10T00:21:09;19.50;99.90
38118;DHT22;23928;47.562;7.508;2023-06-10T00:23:35;19.50;99.90
38118;DHT22;23928;47.562;7.508;2023-06-10T00:26:03;19.70;99.90
38118;DHT22;23928;47.562;7.508;2023-06-10T00:28:29;19.40;99.90
38118;DHT22;23928;47.562;7.508;2023-06-10T00:30:55;19.50;99.90
38118;DHT22;23928;47.562;7.508;2023-06-10T00:33:21;19.50;99.90
38118;DHT22;23928;47.562;7.508;2023-06-10T00:35:47;19.20;99.90
38118;DHT22;23928;47.562;7.508;2023-06-10T00:38:14;19.40;99.90
38118;DHT22;23928;47.562;7.508;2023-06-10T00:40:41;19.50;99.90
38118;DHT22;23928;47.562;7.508;2023-06-10T00:43:07;19.10;99.90
38118;DHT22;23928;47.562;7.508;2023-06-10T00:45:33;18.80;99.90
38118;DHT22;23928;47.562;7.508;2023-06-10T00:48:03;19.10;99.90
38118;DHT22;23928;47.562;7.508;2023-06-10T00:50:29;19.10;99.90
38118;DHT22;23928;47.562;7.508;2023-06-10T00:52:56;19.30;99.90
38118;DHT22;23928;47.562;7.508;2023-06-10T00:55:22;19.20;99.90
38118;DHT22;23928;47.562;7.508;2023-06-10T00:57:49;19.20;99.90
38118;DHT22;23928;47.562;7.508;2023-06-10T01:00:17;19.40;99.90
38118;DHT22;23928;47.562;7.508;2023-06-10T01:02:43;19.50;99.90
38118;DHT22;23928;47.562;7.508;2023-06-10T01:05:09;19.40;99.90
38118;DHT22;23928;47.562;7.508;2023-06-10T01:10:40;19.20;99.90
38118;DHT22;23928;47.562;7.508;2023-06-10T01:13:10;18.80;99.90
38118;DHT22;23928;47.562;7.508;2023-06-10T01:15:37;19.10;99.90
38118;DHT22;23928;47.562;7.508;2023-06-10T01:18:07;19.20;99.90
38118;DHT22;23928;47.562;7.508;2023-06-10T01:20:41;18.60;99.90
38118;DHT22;23928;47.562;7.508;2023-06-10T01:23:09;18.80;99.90
38118;DHT22;23928;47.562;7.508;2023-06-10T01:25:38;18.80;99.90
38118;DHT22;23928;47.562;7.508;2023-06-10T01:28:12;18.60;99.90
38118;DHT22;23928;47.562;7.508;2023-06-10T01:30:58;18.70;99.90
38118;DHT22;23928;47.562;7.508;2023-06-10T01:33:28;19.00;99.90
38118;DHT22;23928;47.562;7.508;2023-06-10T01:35:57;18.80;99.90
38118;DHT22;23928;47.562;7.508;2023-06-10T01:38:25;18.70;99.90
38118;DHT22;23928;47.562;7.508;2023-06-10T01:40:53;18.90;99.90
38118;DHT22;23928;47.562;7.508;2023-06-10T01:43:21;18.90;99.90
38118;DHT22;23928;47.562;7.508;2023-06-10T01:45:46;18.50;99.90
38118;DHT22;23928;47.562;7.508;2023-06-10T01:48:12;18.70;99.90
38118;DHT22;23928;47.562;7.508;2023-06-10T01:50:38;18.70;99.90
38118;DHT22;23928;47.562;7.508;2023-06-10T01:53:04;18.80;99.90
38118;DHT22;23928;47.562;7.508;2023-06-10T01:55:31;18.80;99.90
38118;DHT22;23928;47.562;7.508;2023-06-10T01:57:57;18.50;99.90
38118;DHT22;23928;47.562;7.508;2023-06-10T02:00:22;18.20;99.90
38118;DHT22;23928;47.562;7.508;2023-06-10T02:02:48;18.50;99.90
38118;DHT22;23928;47.562;7.508;2023-06-10T02:05:13;18.50;99.90
38118;DHT22;23928;47.562;7.508;2023-06-10T02:07:39;18.40;99.90
38118;DHT22;23928;47.562;7.508;2023-06-10T02:10:06;18.20;99.90
38118;DHT22;23928;47.562;7.508;2023-06-10T02:12:31;18.30;99.90
38118;DHT22;23928;47.562;7.508;2023-06-10T02:14:57;18.20;99.90
38118;DHT22;23928;47.562;7.508;2023-06-10T02:17:22;18.00;99.90
38118;DHT22;23928;47.562;7.508;2023-06-10T02:19:49;18.10;99.90
38118;DHT22;23928;47.562;7.508;2023-06-10T02:22:20;18.10;99.90
38118;DHT22;23928;47.562;7.508;2023-06-10T02:24:46;18.00;99.90
38118;DHT22;23928;47.562;7.508;2023-06-10T02:27:11;17.80;99.90
38118;DHT22;23928;47.562;7.508;2023-06-10T02:29:37;17.50;99.90
38118;DHT22;23928;47.562;7.508;2023-06-10T02:32:03;17.60;99.90
38118;DHT22;23928;47.562;7.508;2023-06-10T02:34:29;17.70;99.90
38118;DHT22;23928;47.562;7.508;2023-06-10T02:36:54;17.90;99.90
38118;DHT22;23928;47.562;7.508;2023-06-10T02:39:21;18.00;99.90
38118;DHT22;23928;47.562;7.508;2023-06-10T02:41:46;17.80;99.90
38118;DHT22;23928;47.562;7.508;2023-06-10T02:44:12;17.90;99.90
38118;DHT22;23928;47.562;7.508;2023-06-10T02:46:38;18.20;99.90
38118;DHT22;23928;47.562;7.508;2023-06-10T02:49:03;18.20;99.90
38118;DHT22;23928;47.562;7.508;2023-06-10T02:51:29;18.00;99.90
38118;DHT22;23928;47.562;7.508;2023-06-10T02:53:54;17.80;99.90
38118;DHT22;23928;47.562;7.508;2023-06-10T02:56:20;18.00;99.90
38118;DHT22;23928;47.562;7.508;2023-06-10T02:58:47;18.10;99.90
38118;DHT22;23928;47.562;7.508;2023-06-10T03:01:13;17.80;99.90
38118;DHT22;23928;47.562;7.508;2023-06-10T03:03:39;17.90;99.90
38118;DHT22;23928;47.562;7.508;2023-06-10T03:06:10;17.80;99.90
38118;DHT22;23928;47.562;7.508;2023-06-10T03:08:36;17.70;99.90
38118;DHT22;23928;47.562;7.508;2023-06-10T03:11:03;17.90;99.90
38118;DHT22;23928;47.562;7.508;2023-06-10T03:13:28;17.50;99.90
38118;DHT22;23928;47.562;7.508;2023-06-10T03:15:54;17.50;99.90
38118;DHT22;23928;47.562;7.508;2023-06-10T03:18:20;17.80;99.90
38118;DHT22;23928;47.562;7.508;2023-06-10T03:20:46;17.90;99.90
38118;DHT22;23928;47.562;7.508;2023-06-10T03:23:11;17.60;99.90
38118;DHT22;23928;47.562;7.508;2023-06-10T03:25:38;17.50;99.90
38118;DHT22;23928;47.562;7.508;2023-06-10T03:28:03;17.60;99.90
38118;DHT22;23928;47.562;7.508;2023-06-10T03:30:29;17.80;99.90
38118;DHT22;23928;47.562;7.508;2023-06-10T03:32:54;17.70;99.90
38118;DHT22;23928;47.562;7.508;2023-06-10T03:35:20;17.50;99.90
38118;DHT22;23928;47.562;7.508;2023-06-10T03:37:46;17.40;99.90
38118;DHT22;23928;47.562;7.508;2023-06-10T03:40:11;17.50;99.90
38118;DHT22;23928;47.562;7.508;2023-06-10T03:42:37;17.80;99.90
38118;DHT22;23928;47.562;7.508;2023-06-10T03:45:03;17.80;99.90
38118;DHT22;23928;47.562;7.508;2023-06-10T03:47:36;17.70;99.90
38118;DHT22;23928;47.562;7.508;2023-06-10T03:50:03;17.80;99.90
38118;DHT22;23928;47.562;7.508;2023-06-10T03:52:29;17.90;99.90
38118;DHT22;23928;47.562;7.508;2023-06-10T03:54:54;17.70;99.90
38118;DHT22;23928;47.562;7.508;2023-06-10T03:57:20;17.50;99.90
38118;DHT22;23928;47.562;7.508;2023-06-10T03:59:46;17.50;99.90
38118;DHT22;23928;47.562;7.508;2023-06-10T04:02:11;17.50;99.90
38118;DHT22;23928;47.562;7.508;2023-06-10T04:04:37;17.60;99.90
38118;DHT22;23928;47.562;7.508;2023-06-10T04:07:04;17.50;99.90
38118;DHT22;23928;47.562;7.508;2023-06-10T04:09:29;17.30;99.90
38118;DHT22;23928;47.562;7.508;2023-06-10T04:11:55;17.40;99.90
38118;DHT22;23928;47.562;7.508;2023-06-10T04:14:21;17.40;99.90
38118;DHT22;23928;47.562;7.508;2023-06-10T04:16:46;17.40;99.90
38118;DHT22;23928;47.562;7.508;2023-06-10T04:19:12;17.20;99.90
38118;DHT22;23928;47.562;7.508;2023-06-10T04:21:38;17.30;99.90
38118;DHT22;23928;47.562;7.508;2023-06-10T04:24:03;17.50;99.90
38118;DHT22;23928;47.562;7.508;2023-06-10T04:26:29;17.50;99.90
38118;DHT22;23928;47.562;7.508;2023-06-10T04:28:55;17.70;99.90
38118;DHT22;23928;47.562;7.508;2023-06-10T04:31:20;17.90;99.90
38118;DHT22;23928;47.562;7.508;2023-06-10T04:33:46;17.70;99.90
38118;DHT22;23928;47.562;7.508;2023-06-10T04:36:12;17.60;99.90
38118;DHT22;23928;47.562;7.508;2023-06-10T04:38:37;17.90;99.90
38118;DHT22;23928;47.562;7.508;2023-06-10T04:41:03;17.70;99.90
38118;DHT22;23928;47.562;7.508;2023-06-10T04:43:29;17.80;99.90
38118;DHT22;23928;47.562;7.508;2023-06-10T04:45:55;18.00;99.90
38118;DHT22;23928;47.562;7.508;2023-06-10T04:48:21;18.30;99.90
38118;DHT22;23928;47.562;7.508;2023-06-10T04:50:49;18.20;99.90
38118;DHT22;23928;47.562;7.508;2023-06-10T04:53:15;18.10;99.90
38118;DHT22;23928;47.562;7.508;2023-06-10T04:55:42;18.10;99.90
38118;DHT22;23928;47.562;7.508;2023-06-10T04:58:07;18.30;99.90
38118;DHT22;23928;47.562;7.508;2023-06-10T05:00:33;18.30;99.90
38118;DHT22;23928;47.562;7.508;2023-06-10T05:02:58;18.60;99.90
38118;DHT22;23928;47.562;7.508;2023-06-10T05:05:24;18.80;99.90
38118;DHT22;23928;47.562;7.508;2023-06-10T05:07:49;18.90;99.90
38118;DHT22;23928;47.562;7.508;2023-06-10T05:10:15;18.60;99.90
38118;DHT22;23928;47.562;7.508;2023-06-10T05:12:41;18.80;99.90
38118;DHT22;23928;47.562;7.508;2023-06-10T05:15:08;18.80;99.90
38118;DHT22;23928;47.562;7.508;2023-06-10T05:17:34;18.90;99.90
38118;DHT22;23928;47.562;7.508;2023-06-10T05:20:02;18.80;99.90
38118;DHT22;23928;47.562;7.508;2023-06-10T05:22:28;19.00;99.90
38118;DHT22;23928;47.562;7.508;2023-06-10T05:24:54;19.10;99.90
38118;DHT22;23928;47.562;7.508;2023-06-10T05:27:20;19.20;99.90
38118;DHT22;23928;47.562;7.508;2023-06-10T05:29:46;19.00;99.90
38118;DHT22;23928;47.562;7.508;2023-06-10T05:32:12;18.90;99.90
38118;DHT22;23928;47.562;7.508;2023-06-10T05:34:37;18.90;99.90
38118;DHT22;23928;47.562;7.508;2023-06-10T05:37:04;18.90;99.90
38118;DHT22;23928;47.562;7.508;2023-06-10T05:39:30;18.80;99.90
38118;DHT22;23928;47.562;7.508;2023-06-10T05:41:55;19.00;99.90
38118;DHT22;23928;47.562;7.508;2023-06-10T05:44:23;19.30;99.90
38118;DHT22;23928;47.562;7.508;2023-06-10T05:46:49;19.40;99.90
38118;DHT22;23928;47.562;7.508;2023-06-10T05:49:14;19.40;99.90
38118;DHT22;23928;47.562;7.508;2023-06-10T05:51:40;19.40;99.90
38118;DHT22;23928;47.562;7.508;2023-06-10T05:54:05;19.40;99.90
38118;DHT22;23928;47.562;7.508;2023-06-10T05:56:31;19.40;99.90
38118;DHT22;23928;47.562;7.508;2023-06-10T05:58:56;19.40;99.90
38118;DHT22;23928;47.562;7.508;2023-06-10T06:01:22;19.60;99.90
38118;DHT22;23928;47.562;7.508;2023-06-10T06:03:47;19.80;99.90
38118;DHT22;23928;47.562;7.508;2023-06-10T06:06:13;19.90;99.90
38118;DHT22;23928;47.562;7.508;2023-06-10T06:08:39;19.90;99.90
38118;DHT22;23928;47.562;7.508;2023-06-10T06:11:04;19.90;99.90
38118;DHT22;23928;47.562;7.508;2023-06-10T06:13:30;20.10;99.90
38118;DHT22;23928;47.562;7.508;2023-06-10T06:15:55;20.00;99.90
38118;DHT22;23928;47.562;7.508;2023-06-10T06:18:21;20.10;99.90
38118;DHT22;23928;47.562;7.508;2023-06-10T06:20:47;20.40;99.90
38118;DHT22;23928;47.562;7.508;2023-06-10T06:23:12;20.20;99.90
38118;DHT22;23928;47.562;7.508;2023-06-10T06:25:38;20.10;99.90
38118;DHT22;23928;47.562;7.508;2023-06-10T06:28:07;20.20;99.90
38118;DHT22;23928;47.562;7.508;2023-06-10T06:30:36;20.30;99.90
38118;DHT22;23928;47.562;7.508;2023-06-10T06:33:02;20.50;99.90
38118;DHT22;23928;47.562;7.508;2023-06-10T06:35:27;20.60;99.90
38118;DHT22;23928;47.562;7.508;2023-06-10T06:37:55;20.60;99.90
38118;DHT22;23928;47.562;7.508;2023-06-10T06:40:21;20.60;99.90
38118;DHT22;23928;47.562;7.508;2023-06-10T06:42:46;20.70;99.90
38118;DHT22;23928;47.562;7.508;2023-06-10T06:45:12;20.80;99.90
38118;DHT22;23928;47.562;7.508;2023-06-10T06:47:38;20.70;99.90
38118;DHT22;23928;47.562;7.508;2023-06-10T06:50:04;20.70;99.90
38118;DHT22;23928;47.562;7.508;2023-06-10T06:52:29;20.80;99.90
38118;DHT22;23928;47.562;7.508;2023-06-10T06:54:55;20.90;99.90
38118;DHT22;23928;47.562;7.508;2023-06-10T06:57:20;20.70;99.90
38118;DHT22;23928;47.562;7.508;2023-06-10T06:59:46;20.80;99.90
38118;DHT22;23928;47.562;7.508;2023-06-10T07:02:12;21.00;99.90
38118;DHT22;23928;47.562;7.508;2023-06-10T07:04:37;21.10;99.90
38118;DHT22;23928;47.562;7.508;2023-06-10T07:07:07;21.20;99.90
38118;DHT22;23928;47.562;7.508;2023-06-10T07:09:32;21.30;99.90
38118;DHT22;23928;47.562;7.508;2023-06-10T07:11:58;21.50;99.90
38118;DHT22;23928;47.562;7.508;2023-06-10T07:14:23;21.50;99.90
38118;DHT22;23928;47.562;7.508;2023-06-10T07:16:49;21.50;99.90
38118;DHT22;23928;47.562;7.508;2023-06-10T07:19:15;21.20;99.90
38118;DHT22;23928;47.562;7.508;2023-06-10T07:21:40;21.20;99.90
38118;DHT22;23928;47.562;7.508;2023-06-10T07:24:06;21.40;99.90
38118;DHT22;23928;47.562;7.508;2023-06-10T07:26:32;21.20;99.90
38118;DHT22;23928;47.562;7.508;2023-06-10T07:28:57;21.50;99.90
38118;DHT22;23928;47.562;7.508;2023-06-10T07:31:23;21.60;99.90
38118;DHT22;23928;47.562;7.508;2023-06-10T07:33:49;21.90;99.90
38118;DHT22;23928;47.562;7.508;2023-06-10T07:36:15;22.10;99.90
38118;DHT22;23928;47.562;7.508;2023-06-10T07:38:41;21.90;99.90
38118;DHT22;23928;47.562;7.508;2023-06-10T07:41:08;21.80;99.90
38118;DHT22;23928;47.562;7.508;2023-06-10T07:43:33;22.20;99.90
38118;DHT22;23928;47.562;7.508;2023-06-10T07:45:59;22.00;99.90
38118;DHT22;23928;47.562;7.508;2023-06-10T07:48:25;21.90;99.90
38118;DHT22;23928;47.562;7.508;2023-06-10T07:50:52;21.80;99.90
38118;DHT22;23928;47.562;7.508;2023-06-10T07:53:17;21.90;99.90
38118;DHT22;23928;47.562;7.508;2023-06-10T07:55:43;22.10;99.90
38118;DHT22;23928;47.562;7.508;2023-06-10T07:58:09;22.20;99.90
38118;DHT22;23928;47.562;7.508;2023-06-10T08:00:35;22.10;99.90
38118;DHT22;23928;47.562;7.508;2023-06-10T08:03:01;22.10;99.90
38118;DHT22;23928;47.562;7.508;2023-06-10T08:05:26;22.20;99.90
38118;DHT22;23928;47.562;7.508;2023-06-10T08:07:52;22.20;99.90
38118;DHT22;23928;47.562;7.508;2023-06-10T08:10:18;22.30;99.90
38118;DHT22;23928;47.562;7.508;2023-06-10T08:12:43;22.50;99.90
38118;DHT22;23928;47.562;7.508;2023-06-10T08:15:09;22.70;99.90
38118;DHT22;23928;47.562;7.508;2023-06-10T08:17:35;22.80;99.90
38118;DHT22;23928;47.562;7.508;2023-06-10T08:20:01;22.70;99.90
38118;DHT22;23928;47.562;7.508;2023-06-10T08:22:27;22.60;99.90
38118;DHT22;23928;47.562;7.508;2023-06-10T08:24:54;23.00;99.90
38118;DHT22;23928;47.562;7.508;2023-06-10T08:27:19;23.40;99.90
38118;DHT22;23928;47.562;7.508;2023-06-10T08:29:45;23.30;99.90
38118;DHT22;23928;47.562;7.508;2023-06-10T08:32:11;23.30;99.90
38118;DHT22;23928;47.562;7.508;2023-06-10T08:34:36;22.90;99.90
38118;DHT22;23928;47.562;7.508;2023-06-10T08:37:03;23.00;99.90
38118;DHT22;23928;47.562;7.508;2023-06-10T08:39:28;23.20;99.90
38118;DHT22;23928;47.562;7.508;2023-06-10T08:44:39;23.60;99.90
38118;DHT22;23928;47.562;7.508;2023-06-10T08:47:12;23.60;99.90
38118;DHT22;23928;47.562;7.508;2023-06-10T08:49:41;24.00;99.90
38118;DHT22;23928;47.562;7.508;2023-06-10T08:52:09;23.40;99.90
38118;DHT22;23928;47.562;7.508;2023-06-10T08:54:37;23.50;99.90
38118;DHT22;23928;47.562;7.508;2023-06-10T08:57:05;23.50;99.90
38118;DHT22;23928;47.562;7.508;2023-06-10T08:59:33;23.60;99.90
38118;DHT22;23928;47.562;7.508;2023-06-10T09:02:00;23.50;99.90
38118;DHT22;23928;47.562;7.508;2023-06-10T09:04:26;23.60;99.90
38118;DHT22;23928;47.562;7.508;2023-06-10T09:06:53;23.70;99.90
38118;DHT22;23928;47.562;7.508;2023-06-10T09:09:19;24.10;99.90
38118;DHT22;23928;47.562;7.508;2023-06-10T09:11:47;24.30;99.90
38118;DHT22;23928;47.562;7.508;2023-06-10T09:14:13;24.40;99.90
38118;DHT22;23928;47.562;7.508;2023-06-10T09:16:39;23.90;99.90
38118;DHT22;23928;47.562;7.508;2023-06-10T09:19:06;23.90;99.90
38118;DHT22;23928;47.562;7.508;2023-06-10T09:21:33;23.90;99.90
38118;DHT22;23928;47.562;7.508;2023-06-10T09:23:59;24.10;99.90
38118;DHT22;23928;47.562;7.508;2023-06-10T09:26:29;23.80;99.90
38118;DHT22;23928;47.562;7.508;2023-06-10T09:29:03;24.10;99.90
38118;DHT22;23928;47.562;7.508;2023-06-10T09:31:29;24.10;99.90
38118;DHT22;23928;47.562;7.508;2023-06-10T09:34:14;24.00;99.90
38118;DHT22;23928;47.562;7.508;2023-06-10T09:36:41;23.90;99.90
38118;DHT22;23928;47.562;7.508;2023-06-10T09:39:19;24.10;99.90
38118;DHT22;23928;47.562;7.508;2023-06-10T09:41:45;24.30;99.90
38118;DHT22;23928;47.562;7.508;2023-06-10T09:44:13;24.30;99.90
38118;DHT22;23928;47.562;7.508;2023-06-10T09:46:40;24.30;99.90
38118;DHT22;23928;47.562;7.508;2023-06-10T09:49:06;24.50;99.90
38118;DHT22;23928;47.562;7.508;2023-06-10T09:51:32;24.90;99.90
38118;DHT22;23928;47.562;7.508;2023-06-10T09:53:59;25.10;99.90
38118;DHT22;23928;47.562;7.508;2023-06-10T09:56:35;25.50;99.90
38118;DHT22;23928;47.562;7.508;2023-06-10T09:59:01;25.70;99.90
38118;DHT22;23928;47.562;7.508;2023-06-10T10:01:27;25.60;99.90
38118;DHT22;23928;47.562;7.508;2023-06-10T10:03:53;25.30;99.90
38118;DHT22;23928;47.562;7.508;2023-06-10T10:06:19;25.10;99.90
38118;DHT22;23928;47.562;7.508;2023-06-10T10:08:49;25.20;99.90
38118;DHT22;23928;47.562;7.508;2023-06-10T10:11:16;25.20;99.90
38118;DHT22;23928;47.562;7.508;2023-06-10T10:13:45;25.10;99.90
38118;DHT22;23928;47.562;7.508;2023-06-10T10:16:14;25.20;99.90
38118;DHT22;23928;47.562;7.508;2023-06-10T10:18:43;25.50;99.90
38118;DHT22;23928;47.562;7.508;2023-06-10T10:21:13;26.00;99.90
38118;DHT22;23928;47.562;7.508;2023-06-10T10:26:17;26.00;99.90
38118;DHT22;23928;47.562;7.508;2023-06-10T10:31:35;26.90;99.90
38118;DHT22;23928;47.562;7.508;2023-06-10T10:34:06;27.30;99.90
38118;DHT22;23928;47.562;7.508;2023-06-10T10:36:32;27.40;99.90
38118;DHT22;23928;47.562;7.508;2023-06-10T10:38:58;27.00;99.90
38118;DHT22;23928;47.562;7.508;2023-06-10T10:41:27;26.80;99.90
38118;DHT22;23928;47.562;7.508;2023-06-10T10:43:54;26.30;99.90
38118;DHT22;23928;47.562;7.508;2023-06-10T10:46:20;26.50;99.90
38118;DHT22;23928;47.562;7.508;2023-06-10T10:48:46;26.60;99.90
38118;DHT22;23928;47.562;7.508;2023-06-10T10:51:17;26.70;99.90
38118;DHT22;23928;47.562;7.508;2023-06-10T10:53:42;26.30;99.90
38118;DHT22;23928;47.562;7.508;2023-06-10T10:56:14;26.30;99.90
38118;DHT22;23928;47.562;7.508;2023-06-10T10:58:40;26.10;99.90
38118;DHT22;23928;47.562;7.508;2023-06-10T11:01:13;26.70;99.90
38118;DHT22;23928;47.562;7.508;2023-06-10T11:03:45;26.30;99.90
38118;DHT22;23928;47.562;7.508;2023-06-10T11:06:17;26.10;99.90
38118;DHT22;23928;47.562;7.508;2023-06-10T11:11:24;25.80;99.90
38118;DHT22;23928;47.562;7.508;2023-06-10T11:14:05;26.40;99.90
38118;DHT22;23928;47.562;7.508;2023-06-10T11:16:42;26.00;99.90
38118;DHT22;23928;47.562;7.508;2023-06-10T11:19:08;26.60;99.90
38118;DHT22;23928;47.562;7.508;2023-06-10T11:21:59;26.70;99.90
38118;DHT22;23928;47.562;7.508;2023-06-10T11:24:29;27.30;99.90
38118;DHT22;23928;47.562;7.508;2023-06-10T11:27:15;27.00;99.90
38118;DHT22;23928;47.562;7.508;2023-06-10T11:29:58;27.90;99.90
38118;DHT22;23928;47.562;7.508;2023-06-10T11:32:43;28.90;99.90
38118;DHT22;23928;47.562;7.508;2023-06-10T11:35:09;29.10;99.90
38118;DHT22;23928;47.562;7.508;2023-06-10T11:37:35;29.10;99.90
38118;DHT22;23928;47.562;7.508;2023-06-10T11:40:02;29.20;99.90
38118;DHT22;23928;47.562;7.508;2023-06-10T11:42:28;29.30;99.90
38118;DHT22;23928;47.562;7.508;2023-06-10T11:44:54;29.40;99.90
38118;DHT22;23928;47.562;7.508;2023-06-10T11:47:21;28.60;99.90
38118;DHT22;23928;47.562;7.508;2023-06-10T11:49:56;28.70;99.90
38118;DHT22;23928;47.562;7.508;2023-06-10T11:52:31;29.30;99.90
38118;DHT22;23928;47.562;7.508;2023-06-10T11:55:05;28.70;99.90
38118;DHT22;23928;47.562;7.508;2023-06-10T11:57:34;27.40;99.90
38118;DHT22;23928;47.562;7.508;2023-06-10T12:00:05;27.30;99.90
38118;DHT22;23928;47.562;7.508;2023-06-10T12:02:31;28.20;99.90
38118;DHT22;23928;47.562;7.508;2023-06-10T12:05:10;28.80;99.90
38118;DHT22;23928;47.562;7.508;2023-06-10T12:07:36;29.40;99.90
38118;DHT22;23928;47.562;7.508;2023-06-10T12:10:01;29.40;99.90
38118;DHT22;23928;47.562;7.508;2023-06-10T12:12:27;28.60;99.90
38118;DHT22;23928;47.562;7.508;2023-06-10T12:14:54;28.00;99.90
38118;DHT22;23928;47.562;7.508;2023-06-10T12:17:36;27.80;99.90
38118;DHT22;23928;47.562;7.508;2023-06-10T12:20:06;27.10;99.90
38118;DHT22;23928;47.562;7.508;2023-06-10T12:25:04;27.00;99.90
38118;DHT22;23928;47.562;7.508;2023-06-10T12:27:32;26.60;99.90
38118;DHT22;23928;47.562;7.508;2023-06-10T12:30:00;27.20;99.90
38118;DHT22;23928;47.562;7.508;2023-06-10T12:32:44;27.60;99.90
38118;DHT22;23928;47.562;7.508;2023-06-10T12:35:12;27.60;99.90
38118;DHT22;23928;47.562;7.508;2023-06-10T12:37:42;27.00;99.90
38118;DHT22;23928;47.562;7.508;2023-06-10T12:40:08;28.00;99.90
38118;DHT22;23928;47.562;7.508;2023-06-10T12:42:37;27.90;99.90
38118;DHT22;23928;47.562;7.508;2023-06-10T12:45:04;28.60;99.90
38118;DHT22;23928;47.562;7.508;2023-06-10T12:47:37;28.00;99.90
38118;DHT22;23928;47.562;7.508;2023-06-10T12:50:05;28.10;99.90
38118;DHT22;23928;47.562;7.508;2023-06-10T12:52:31;28.40;99.90
38118;DHT22;23928;47.562;7.508;2023-06-10T12:54:57;28.50;99.90
38118;DHT22;23928;47.562;7.508;2023-06-10T12:57:23;29.30;99.90
38118;DHT22;23928;47.562;7.508;2023-06-10T12:59:49;29.30;99.90
38118;DHT22;23928;47.562;7.508;2023-06-10T13:02:21;28.20;99.90
38118;DHT22;23928;47.562;7.508;2023-06-10T13:04:49;27.70;99.90
38118;DHT22;23928;47.562;7.508;2023-06-10T13:07:15;27.30;99.90
38118;DHT22;23928;47.562;7.508;2023-06-10T13:09:41;28.10;99.90
38118;DHT22;23928;47.562;7.508;2023-06-10T13:12:07;28.30;99.90
38118;DHT22;23928;47.562;7.508;2023-06-10T13:14:33;28.50;99.90
38118;DHT22;23928;47.562;7.508;2023-06-10T13:16:58;28.90;99.90
38118;DHT22;23928;47.562;7.508;2023-06-10T13:19:24;28.70;99.90
38118;DHT22;23928;47.562;7.508;2023-06-10T13:21:51;28.90;99.90
38118;DHT22;23928;47.562;7.508;2023-06-10T13:24:17;29.00;99.90
38118;DHT22;23928;47.562;7.508;2023-06-10T13:26:42;28.30;99.90
38118;DHT22;23928;47.562;7.508;2023-06-10T13:29:08;28.60;99.90
38118;DHT22;23928;47.562;7.508;2023-06-10T13:31:39;29.30;99.90
38118;DHT22;23928;47.562;7.508;2023-06-10T13:34:05;28.70;99.90
38118;DHT22;23928;47.562;7.508;2023-06-10T13:36:31;28.80;99.90
38118;DHT22;23928;47.562;7.508;2023-06-10T13:38:57;28.70;99.90
38118;DHT22;23928;47.562;7.508;2023-06-10T13:41:22;29.40;99.90
38118;DHT22;23928;47.562;7.508;2023-06-10T13:43:48;28.40;99.90
38118;DHT22;23928;47.562;7.508;2023-06-10T13:46:13;28.20;99.90
38118;DHT22;23928;47.562;7.508;2023-06-10T13:48:39;27.40;99.90
38118;DHT22;23928;47.562;7.508;2023-06-10T13:51:05;27.00;99.90
38118;DHT22;23928;47.562;7.508;2023-06-10T13:53:32;27.60;99.90
38118;DHT22;23928;47.562;7.508;2023-06-10T13:55:57;27.90;99.90
38118;DHT22;23928;47.562;7.508;2023-06-10T13:58:23;28.30;99.90
38118;DHT22;23928;47.562;7.508;2023-06-10T14:00:49;28.60;99.90
38118;DHT22;23928;47.562;7.508;2023-06-10T14:03:14;29.00;99.90
38118;DHT22;23928;47.562;7.508;2023-06-10T14:05:40;28.90;99.90
38118;DHT22;23928;47.562;7.508;2023-06-10T14:08:05;28.90;99.90
38118;DHT22;23928;47.562;7.508;2023-06-10T14:10:31;29.70;99.90
38118;DHT22;23928;47.562;7.508;2023-06-10T14:12:57;29.20;99.90
38118;DHT22;23928;47.562;7.508;2023-06-10T14:15:22;28.70;99.90
38118;DHT22;23928;47.562;7.508;2023-06-10T14:17:48;28.70;99.90
38118;DHT22;23928;47.562;7.508;2023-06-10T14:20:13;28.80;99.90
38118;DHT22;23928;47.562;7.508;2023-06-10T14:22:39;28.80;99.90
38118;DHT22;23928;47.562;7.508;2023-06-10T14:25:05;30.00;99.90
38118;DHT22;23928;47.562;7.508;2023-06-10T14:27:31;30.10;99.90
38118;DHT22;23928;47.562;7.508;2023-06-10T14:29:57;29.30;99.90
38118;DHT22;23928;47.562;7.508;2023-06-10T14:32:22;29.70;99.90
38118;DHT22;23928;47.562;7.508;2023-06-10T14:34:48;30.10;99.90
38118;DHT22;23928;47.562;7.508;2023-06-10T14:37:13;30.10;99.90
38118;DHT22;23928;47.562;7.508;2023-06-10T14:39:39;29.90;99.90
38118;DHT22;23928;47.562;7.508;2023-06-10T14:42:05;29.80;99.90
38118;DHT22;23928;47.562;7.508;2023-06-10T14:44:31;28.90;99.90
38118;DHT22;23928;47.562;7.508;2023-06-10T14:46:57;29.30;99.90
38118;DHT22;23928;47.562;7.508;2023-06-10T14:49:22;29.90;99.90
38118;DHT22;23928;47.562;7.508;2023-06-10T14:51:48;30.20;99.90
38118;DHT22;23928;47.562;7.508;2023-06-10T14:54:15;30.40;99.90
38118;DHT22;23928;47.562;7.508;2023-06-10T14:56:41;30.60;99.90
38118;DHT22;23928;47.562;7.508;2023-06-10T14:59:06;29.80;99.90
38118;DHT22;23928;47.562;7.508;2023-06-10T15:01:32;29.40;99.90
38118;DHT22;23928;47.562;7.508;2023-06-10T15:03:57;30.20;99.90
38118;DHT22;23928;47.562;7.508;2023-06-10T15:06:23;29.60;99.90
38118;DHT22;23928;47.562;7.508;2023-06-10T15:08:48;29.40;99.90
38118;DHT22;23928;47.562;7.508;2023-06-10T15:11:17;29.80;99.90
38118;DHT22;23928;47.562;7.508;2023-06-10T15:13:43;30.00;99.90
38118;DHT22;23928;47.562;7.508;2023-06-10T15:16:08;30.20;99.90
38118;DHT22;23928;47.562;7.508;2023-06-10T15:18:34;30.20;99.90
38118;DHT22;23928;47.562;7.508;2023-06-10T15:21:00;30.20;99.90
38118;DHT22;23928;47.562;7.508;2023-06-10T15:23:25;30.70;99.90
38118;DHT22;23928;47.562;7.508;2023-06-10T15:25:51;30.20;99.90
38118;DHT22;23928;47.562;7.508;2023-06-10T15:28:16;29.60;99.90
38118;DHT22;23928;47.562;7.508;2023-06-10T15:30:42;29.90;99.90
38118;DHT22;23928;47.562;7.508;2023-06-10T15:33:08;30.40;99.90
38118;DHT22;23928;47.562;7.508;2023-06-10T15:35:33;30.40;99.90
38118;DHT22;23928;47.562;7.508;2023-06-10T15:37:59;29.80;99.90
38118;DHT22;23928;47.562;7.508;2023-06-10T15:40:25;29.00;99.90
38118;DHT22;23928;47.562;7.508;2023-06-10T15:42:51;29.10;99.90
38118;DHT22;23928;47.562;7.508;2023-06-10T15:45:16;29.20;99.90